sensor_id;sensor_type;location;lat;lon;timestamp;P1;durP1;ratioP1;P2;durP2;ratioP2
8349;SDS011;60699;48.946;8.412;2023-05-17T00:00:39;2.10;;;1.80;;
8349;SDS011;60699;48.946;8.412;2023-05-17T00:03:07;2.10;;;2.00;;
8349;SDS011;60699;48.946;8.412;2023-05-17T00:05:34;1.50;;;1.40;;
8349;SDS011;60699;48.946;8.412;2023-05-17T00:08:01;2.60;;;1.80;;
8349;SDS011;60699;48.946;8.412;2023-05-17T00:10:28;1.95;;;1.85;;
8349;SDS011;60699;48.946;8.412;2023-05-17T00:12:55;1.83;;;1.73;;
8349;SDS011;60699;48.946;8.412;2023-05-17T00:15:22;3.08;;;2.08;;
8349;SDS011;60699;48.946;8.412;2023-05-17T00:17:49;2.90;;;1.75;;
8349;SDS011;60699;48.946;8.412;2023-05-17T00:20:18;3.05;;;1.85;;
8349;SDS011;60699;48.946;8.412;2023-05-17T00:22:45;3.10;;;1.70;;
8349;SDS011;60699;48.946;8.412;2023-05-17T00:25:12;2.10;;;1.70;;
8349;SDS011;60699;48.946;8.412;2023-05-17T00:27:39;3.60;;;1.95;;
8349;SDS011;60699;48.946;8.412;2023-05-17T00:30:06;1.98;;;1.88;;
8349;SDS011;60699;48.946;8.412;2023-05-17T00:32:33;2.45;;;1.85;;
8349;SDS011;60699;48.946;8.412;2023-05-17T00:35:00;2.25;;;1.70;;
8349;SDS011;60699;48.946;8.412;2023-05-17T00:37:28;1.83;;;1.73;;
8349;SDS011;60699;48.946;8.412;2023-05-17T00:39:55;1.60;;;1.50;;
8349;SDS011;60699;48.946;8.412;2023-05-17T00:42:22;2.70;;;2.10;;
8349;SDS011;60699;48.946;8.412;2023-05-17T00:44:49;2.97;;;2.05;;
8349;SDS011;60699;48.946;8.412;2023-05-17T00:47:17;2.45;;;1.77;;
8349;SDS011;60699;48.946;8.412;2023-05-17T00:49:44;2.05;;;1.95;;
8349;SDS011;60699;48.946;8.412;2023-05-17T00:52:11;2.65;;;1.77;;
8349;SDS011;60699;48.946;8.412;2023-05-17T00:54:39;2.00;;;1.80;;
8349;SDS011;60699;48.946;8.412;2023-05-17T00:57:06;5.75;;;2.53;;
8349;SDS011;60699;48.946;8.412;2023-05-17T00:59:34;5.93;;;2.00;;
8349;SDS011;60699;48.946;8.412;2023-05-17T01:02:02;2.92;;;1.95;;
8349;SDS011;60699;48.946;8.412;2023-05-17T01:04:29;3.47;;;2.33;;
8349;SDS011;60699;48.946;8.412;2023-05-17T01:06:56;3.40;;;1.95;;
8349;SDS011;60699;48.946;8.412;2023-05-17T01:09:24;2.10;;;2.00;;
8349;SDS011;60699;48.946;8.412;2023-05-17T01:11:55;2.25;;;2.00;;
8349;SDS011;60699;48.946;8.412;2023-05-17T01:14:37;2.00;;;1.55;;
8349;SDS011;60699;48.946;8.412;2023-05-17T01:17:10;4.35;;;2.08;;
8349;SDS011;60699;48.946;8.412;2023-05-17T01:19:48;2.35;;;2.13;;
8349;SDS011;60699;48.946;8.412;2023-05-17T01:22:19;3.85;;;1.75;;
8349;SDS011;60699;48.946;8.412;2023-05-17T01:24:52;3.28;;;1.95;;
8349;SDS011;60699;48.946;8.412;2023-05-17T01:27:22;7.00;;;1.85;;
8349;SDS011;60699;48.946;8.412;2023-05-17T01:29:51;1.83;;;1.73;;
8349;SDS011;60699;48.946;8.412;2023-05-17T01:32:20;3.90;;;2.35;;
8349;SDS011;60699;48.946;8.412;2023-05-17T01:34:48;3.90;;;2.72;;
8349;SDS011;60699;48.946;8.412;2023-05-17T01:37:15;3.67;;;2.20;;
8349;SDS011;60699;48.946;8.412;2023-05-17T01:39:42;8.77;;;2.47;;
8349;SDS011;60699;48.946;8.412;2023-05-17T01:42:11;2.65;;;1.92;;
8349;SDS011;60699;48.946;8.412;2023-05-17T01:44:42;4.80;;;2.33;;
8349;SDS011;60699;48.946;8.412;2023-05-17T01:47:12;3.17;;;2.13;;
8349;SDS011;60699;48.946;8.412;2023-05-17T01:49:42;2.05;;;1.95;;
8349;SDS011;60699;48.946;8.412;2023-05-17T01:52:18;2.47;;;1.70;;
8349;SDS011;60699;48.946;8.412;2023-05-17T01:54:49;4.43;;;1.83;;
8349;SDS011;60699;48.946;8.412;2023-05-17T01:57:19;2.10;;;1.80;;
8349;SDS011;60699;48.946;8.412;2023-05-17T01:59:47;2.45;;;1.90;;
8349;SDS011;60699;48.946;8.412;2023-05-17T02:02:15;5.55;;;2.33;;
8349;SDS011;60699;48.946;8.412;2023-05-17T02:04:42;6.20;;;3.08;;
8349;SDS011;60699;48.946;8.412;2023-05-17T02:07:09;2.33;;;2.15;;
8349;SDS011;60699;48.946;8.412;2023-05-17T02:09:36;2.60;;;2.40;;
8349;SDS011;60699;48.946;8.412;2023-05-17T02:12:03;2.50;;;1.75;;
8349;SDS011;60699;48.946;8.412;2023-05-17T02:14:30;3.92;;;2.10;;
8349;SDS011;60699;48.946;8.412;2023-05-17T02:16:59;2.58;;;2.38;;
8349;SDS011;60699;48.946;8.412;2023-05-17T02:19:26;2.10;;;1.95;;
8349;SDS011;60699;48.946;8.412;2023-05-17T02:21:53;3.13;;;2.22;;
8349;SDS011;60699;48.946;8.412;2023-05-17T02:24:20;3.40;;;1.80;;
8349;SDS011;60699;48.946;8.412;2023-05-17T02:26:47;6.57;;;2.20;;
8349;SDS011;60699;48.946;8.412;2023-05-17T02:29:14;2.78;;;2.42;;
8349;SDS011;60699;48.946;8.412;2023-05-17T02:31:41;3.28;;;2.20;;
8349;SDS011;60699;48.946;8.412;2023-05-17T02:34:09;4.28;;;2.55;;
8349;SDS011;60699;48.946;8.412;2023-05-17T02:36:36;2.80;;;1.98;;
8349;SDS011;60699;48.946;8.412;2023-05-17T02:39:05;3.42;;;2.30;;
8349;SDS011;60699;48.946;8.412;2023-05-17T02:41:31;1.98;;;1.88;;
8349;SDS011;60699;48.946;8.412;2023-05-17T02:43:58;2.90;;;2.50;;
8349;SDS011;60699;48.946;8.412;2023-05-17T02:46:26;3.72;;;2.60;;
8349;SDS011;60699;48.946;8.412;2023-05-17T02:48:53;3.78;;;2.05;;
8349;SDS011;60699;48.946;8.412;2023-05-17T02:51:21;3.72;;;2.08;;
8349;SDS011;60699;48.946;8.412;2023-05-17T02:53:48;2.05;;;1.95;;
8349;SDS011;60699;48.946;8.412;2023-05-17T02:56:15;4.47;;;1.92;;
8349;SDS011;60699;48.946;8.412;2023-05-17T02:58:42;5.70;;;2.60;;
8349;SDS011;60699;48.946;8.412;2023-05-17T03:01:09;2.45;;;2.05;;
8349;SDS011;60699;48.946;8.412;2023-05-17T03:03:36;2.80;;;2.55;;
8349;SDS011;60699;48.946;8.412;2023-05-17T03:06:03;3.08;;;2.88;;
8349;SDS011;60699;48.946;8.412;2023-05-17T03:08:32;2.70;;;2.50;;
8349;SDS011;60699;48.946;8.412;2023-05-17T03:10:59;3.08;;;2.55;;
8349;SDS011;60699;48.946;8.412;2023-05-17T03:13:26;2.33;;;2.13;;
8349;SDS011;60699;48.946;8.412;2023-05-17T03:15:53;3.05;;;2.15;;
8349;SDS011;60699;48.946;8.412;2023-05-17T03:18:20;2.25;;;2.05;;
8349;SDS011;60699;48.946;8.412;2023-05-17T03:20:47;3.58;;;2.28;;
8349;SDS011;60699;48.946;8.412;2023-05-17T03:23:14;3.00;;;2.10;;
8349;SDS011;60699;48.946;8.412;2023-05-17T03:25:42;4.40;;;2.47;;
8349;SDS011;60699;48.946;8.412;2023-05-17T03:28:09;2.70;;;2.20;;
8349;SDS011;60699;48.946;8.412;2023-05-17T03:30:36;2.60;;;2.40;;
8349;SDS011;60699;48.946;8.412;2023-05-17T03:33:03;5.43;;;2.60;;
8349;SDS011;60699;48.946;8.412;2023-05-17T03:35:30;2.20;;;2.10;;
8349;SDS011;60699;48.946;8.412;2023-05-17T03:37:57;2.75;;;2.50;;
8349;SDS011;60699;48.946;8.412;2023-05-17T03:40:24;3.58;;;2.38;;
8349;SDS011;60699;48.946;8.412;2023-05-17T03:42:52;6.43;;;2.20;;
8349;SDS011;60699;48.946;8.412;2023-05-17T03:45:19;3.45;;;2.55;;
8349;SDS011;60699;48.946;8.412;2023-05-17T03:47:47;2.28;;;2.08;;
8349;SDS011;60699;48.946;8.412;2023-05-17T03:50:14;2.95;;;2.03;;
8349;SDS011;60699;48.946;8.412;2023-05-17T03:52:41;3.75;;;2.05;;
8349;SDS011;60699;48.946;8.412;2023-05-17T03:55:08;2.20;;;2.00;;
8349;SDS011;60699;48.946;8.412;2023-05-17T03:57:35;4.30;;;2.03;;
8349;SDS011;60699;48.946;8.412;2023-05-17T04:00:04;2.30;;;2.08;;
8349;SDS011;60699;48.946;8.412;2023-05-17T04:02:35;3.20;;;1.80;;
8349;SDS011;60699;48.946;8.412;2023-05-17T04:05:02;2.65;;;2.42;;
8349;SDS011;60699;48.946;8.412;2023-05-17T04:07:30;2.70;;;1.90;;
8349;SDS011;60699;48.946;8.412;2023-05-17T04:09:57;2.88;;;2.53;;
8349;SDS011;60699;48.946;8.412;2023-05-17T04:12:26;2.13;;;2.00;;
8349;SDS011;60699;48.946;8.412;2023-05-17T04:14:53;4.25;;;2.33;;
8349;SDS011;60699;48.946;8.412;2023-05-17T04:17:22;2.22;;;2.03;;
8349;SDS011;60699;48.946;8.412;2023-05-17T04:19:49;3.08;;;2.38;;
8349;SDS011;60699;48.946;8.412;2023-05-17T04:22:15;4.30;;;2.00;;
8349;SDS011;60699;48.946;8.412;2023-05-17T04:24:42;3.50;;;2.35;;
8349;SDS011;60699;48.946;8.412;2023-05-17T04:27:10;2.20;;;2.10;;
8349;SDS011;60699;48.946;8.412;2023-05-17T04:29:37;6.70;;;2.55;;
8349;SDS011;60699;48.946;8.412;2023-05-17T04:32:05;2.80;;;2.60;;
8349;SDS011;60699;48.946;8.412;2023-05-17T04:34:33;2.80;;;2.60;;
8349;SDS011;60699;48.946;8.412;2023-05-17T04:37:01;2.47;;;2.28;;
8349;SDS011;60699;48.946;8.412;2023-05-17T04:39:28;3.35;;;2.40;;
8349;SDS011;60699;48.946;8.412;2023-05-17T04:41:56;3.15;;;2.83;;
8349;SDS011;60699;48.946;8.412;2023-05-17T04:44:23;5.00;;;2.67;;
8349;SDS011;60699;48.946;8.412;2023-05-17T04:46:50;3.45;;;3.13;;
8349;SDS011;60699;48.946;8.412;2023-05-17T04:49:18;4.68;;;3.63;;
8349;SDS011;60699;48.946;8.412;2023-05-17T04:51:46;5.28;;;2.22;;
8349;SDS011;60699;48.946;8.412;2023-05-17T04:54:14;3.70;;;2.70;;
8349;SDS011;60699;48.946;8.412;2023-05-17T04:56:41;5.55;;;3.17;;
8349;SDS011;60699;48.946;8.412;2023-05-17T04:59:08;2.60;;;2.40;;
8349;SDS011;60699;48.946;8.412;2023-05-17T05:01:35;3.83;;;2.22;;
8349;SDS011;60699;48.946;8.412;2023-05-17T05:04:02;3.50;;;2.35;;
8349;SDS011;60699;48.946;8.412;2023-05-17T05:06:30;2.75;;;2.40;;
8349;SDS011;60699;48.946;8.412;2023-05-17T05:08:59;2.60;;;2.40;;
8349;SDS011;60699;48.946;8.412;2023-05-17T05:11:26;6.82;;;2.90;;
8349;SDS011;60699;48.946;8.412;2023-05-17T05:13:53;4.00;;;2.63;;
8349;SDS011;60699;48.946;8.412;2023-05-17T05:16:20;3.55;;;2.40;;
8349;SDS011;60699;48.946;8.412;2023-05-17T05:18:47;3.85;;;2.60;;
8349;SDS011;60699;48.946;8.412;2023-05-17T05:21:14;2.88;;;2.50;;
8349;SDS011;60699;48.946;8.412;2023-05-17T05:23:41;5.15;;;3.28;;
8349;SDS011;60699;48.946;8.412;2023-05-17T05:26:09;4.22;;;2.92;;
8349;SDS011;60699;48.946;8.412;2023-05-17T05:28:36;5.18;;;3.70;;
8349;SDS011;60699;48.946;8.412;2023-05-17T05:31:03;4.70;;;2.58;;
8349;SDS011;60699;48.946;8.412;2023-05-17T05:33:31;2.67;;;2.47;;
8349;SDS011;60699;48.946;8.412;2023-05-17T05:35:58;4.80;;;2.95;;
8349;SDS011;60699;48.946;8.412;2023-05-17T05:38:25;11.60;;;2.75;;
8349;SDS011;60699;48.946;8.412;2023-05-17T05:40:52;2.70;;;2.45;;
8349;SDS011;60699;48.946;8.412;2023-05-17T05:43:20;6.80;;;2.75;;
8349;SDS011;60699;48.946;8.412;2023-05-17T05:45:47;4.85;;;3.28;;
8349;SDS011;60699;48.946;8.412;2023-05-17T05:48:14;5.95;;;2.90;;
8349;SDS011;60699;48.946;8.412;2023-05-17T05:50:42;2.85;;;2.63;;
8349;SDS011;60699;48.946;8.412;2023-05-17T05:53:09;4.00;;;2.70;;
8349;SDS011;60699;48.946;8.412;2023-05-17T05:55:39;2.72;;;2.53;;
8349;SDS011;60699;48.946;8.412;2023-05-17T05:58:06;6.60;;;3.25;;
8349;SDS011;60699;48.946;8.412;2023-05-17T06:00:34;3.00;;;2.75;;
8349;SDS011;60699;48.946;8.412;2023-05-17T06:03:02;7.70;;;2.95;;
8349;SDS011;60699;48.946;8.412;2023-05-17T06:05:29;5.05;;;2.95;;
8349;SDS011;60699;48.946;8.412;2023-05-17T06:07:56;4.63;;;3.28;;
8349;SDS011;60699;48.946;8.412;2023-05-17T06:10:23;7.15;;;3.05;;
8349;SDS011;60699;48.946;8.412;2023-05-17T06:12:50;3.20;;;2.65;;
8349;SDS011;60699;48.946;8.412;2023-05-17T06:15:17;3.80;;;3.35;;
8349;SDS011;60699;48.946;8.412;2023-05-17T06:17:45;3.42;;;2.45;;
8349;SDS011;60699;48.946;8.412;2023-05-17T06:20:12;5.65;;;3.65;;
8349;SDS011;60699;48.946;8.412;2023-05-17T06:22:41;5.35;;;3.83;;
8349;SDS011;60699;48.946;8.412;2023-05-17T06:25:08;3.67;;;2.92;;
8349;SDS011;60699;48.946;8.412;2023-05-17T06:27:35;4.90;;;3.30;;
8349;SDS011;60699;48.946;8.412;2023-05-17T06:30:02;3.88;;;3.47;;
8349;SDS011;60699;48.946;8.412;2023-05-17T06:32:30;4.63;;;2.50;;
8349;SDS011;60699;48.946;8.412;2023-05-17T06:34:58;3.50;;;3.20;;
8349;SDS011;60699;48.946;8.412;2023-05-17T06:37:25;3.78;;;3.42;;
8349;SDS011;60699;48.946;8.412;2023-05-17T06:39:52;2.92;;;2.70;;
8349;SDS011;60699;48.946;8.412;2023-05-17T06:42:19;3.88;;;2.65;;
8349;SDS011;60699;48.946;8.412;2023-05-17T06:44:46;3.55;;;2.85;;
8349;SDS011;60699;48.946;8.412;2023-05-17T06:47:13;4.80;;;3.08;;
8349;SDS011;60699;48.946;8.412;2023-05-17T06:49:42;9.13;;;4.82;;
8349;SDS011;60699;48.946;8.412;2023-05-17T06:52:10;5.95;;;4.00;;
8349;SDS011;60699;48.946;8.412;2023-05-17T06:54:37;4.50;;;3.30;;
8349;SDS011;60699;48.946;8.412;2023-05-17T06:57:05;4.03;;;3.30;;
8349;SDS011;60699;48.946;8.412;2023-05-17T06:59:32;5.90;;;2.67;;
8349;SDS011;60699;48.946;8.412;2023-05-17T07:01:59;6.10;;;3.33;;
8349;SDS011;60699;48.946;8.412;2023-05-17T07:04:26;6.00;;;3.13;;
8349;SDS011;60699;48.946;8.412;2023-05-17T07:06:53;3.28;;;2.92;;
8349;SDS011;60699;48.946;8.412;2023-05-17T07:09:21;6.28;;;3.15;;
8349;SDS011;60699;48.946;8.412;2023-05-17T07:11:48;4.75;;;3.08;;
8349;SDS011;60699;48.946;8.412;2023-05-17T07:14:15;4.18;;;3.08;;
8349;SDS011;60699;48.946;8.412;2023-05-17T07:16:42;6.00;;;2.65;;
8349;SDS011;60699;48.946;8.412;2023-05-17T07:19:09;4.35;;;3.10;;
8349;SDS011;60699;48.946;8.412;2023-05-17T07:21:36;2.60;;;2.40;;
8349;SDS011;60699;48.946;8.412;2023-05-17T07:24:03;4.75;;;3.10;;
8349;SDS011;60699;48.946;8.412;2023-05-17T07:26:32;7.05;;;2.80;;
8349;SDS011;60699;48.946;8.412;2023-05-17T07:28:59;6.43;;;3.10;;
8349;SDS011;60699;48.946;8.412;2023-05-17T07:31:26;3.97;;;3.08;;
8349;SDS011;60699;48.946;8.412;2023-05-17T07:33:53;4.72;;;2.67;;
8349;SDS011;60699;48.946;8.412;2023-05-17T07:36:20;3.63;;;2.90;;
8349;SDS011;60699;48.946;8.412;2023-05-17T07:38:47;6.07;;;3.35;;
8349;SDS011;60699;48.946;8.412;2023-05-17T07:41:14;5.93;;;2.65;;
8349;SDS011;60699;48.946;8.412;2023-05-17T07:43:47;9.00;;;2.85;;
8349;SDS011;60699;48.946;8.412;2023-05-17T07:46:14;7.20;;;3.13;;
8349;SDS011;60699;48.946;8.412;2023-05-17T07:48:41;3.03;;;2.70;;
8349;SDS011;60699;48.946;8.412;2023-05-17T07:51:08;6.75;;;3.60;;
8349;SDS011;60699;48.946;8.412;2023-05-17T07:53:35;5.70;;;4.15;;
8349;SDS011;60699;48.946;8.412;2023-05-17T07:56:02;3.55;;;2.72;;
8349;SDS011;60699;48.946;8.412;2023-05-17T07:58:29;6.28;;;3.25;;
8349;SDS011;60699;48.946;8.412;2023-05-17T08:00:57;3.15;;;2.85;;
8349;SDS011;60699;48.946;8.412;2023-05-17T08:03:25;3.95;;;3.00;;
8349;SDS011;60699;48.946;8.412;2023-05-17T08:05:52;6.43;;;3.08;;
8349;SDS011;60699;48.946;8.412;2023-05-17T08:08:19;3.47;;;2.95;;
8349;SDS011;60699;48.946;8.412;2023-05-17T08:10:46;3.28;;;2.50;;
8349;SDS011;60699;48.946;8.412;2023-05-17T08:13:13;5.35;;;2.53;;
8349;SDS011;60699;48.946;8.412;2023-05-17T08:15:40;4.75;;;2.80;;
8349;SDS011;60699;48.946;8.412;2023-05-17T08:18:09;5.78;;;2.58;;
8349;SDS011;60699;48.946;8.412;2023-05-17T08:20:36;7.50;;;3.25;;
8349;SDS011;60699;48.946;8.412;2023-05-17T08:23:03;5.22;;;3.10;;
8349;SDS011;60699;48.946;8.412;2023-05-17T08:25:30;6.60;;;3.30;;
8349;SDS011;60699;48.946;8.412;2023-05-17T08:27:57;5.13;;;3.47;;
8349;SDS011;60699;48.946;8.412;2023-05-17T08:30:24;5.18;;;3.05;;
8349;SDS011;60699;48.946;8.412;2023-05-17T08:32:51;3.30;;;2.65;;
8349;SDS011;60699;48.946;8.412;2023-05-17T08:35:21;4.50;;;2.97;;
8349;SDS011;60699;48.946;8.412;2023-05-17T08:37:49;4.03;;;3.63;;
8349;SDS011;60699;48.946;8.412;2023-05-17T08:40:17;4.60;;;3.65;;
8349;SDS011;60699;48.946;8.412;2023-05-17T08:42:46;4.60;;;2.58;;
8349;SDS011;60699;48.946;8.412;2023-05-17T08:45:14;5.95;;;3.05;;
8349;SDS011;60699;48.946;8.412;2023-05-17T08:47:41;3.33;;;2.80;;
8349;SDS011;60699;48.946;8.412;2023-05-17T08:50:10;5.47;;;3.03;;
8349;SDS011;60699;48.946;8.412;2023-05-17T08:52:40;5.95;;;3.10;;
8349;SDS011;60699;48.946;8.412;2023-05-17T08:55:09;4.93;;;2.95;;
8349;SDS011;60699;48.946;8.412;2023-05-17T08:57:40;4.15;;;3.00;;
8349;SDS011;60699;48.946;8.412;2023-05-17T09:00:07;4.88;;;3.15;;
8349;SDS011;60699;48.946;8.412;2023-05-17T09:02:37;4.22;;;2.97;;
8349;SDS011;60699;48.946;8.412;2023-05-17T09:05:04;4.88;;;3.20;;
8349;SDS011;60699;48.946;8.412;2023-05-17T09:07:32;4.50;;;3.00;;
8349;SDS011;60699;48.946;8.412;2023-05-17T09:10:00;3.67;;;3.30;;
8349;SDS011;60699;48.946;8.412;2023-05-17T09:12:29;3.83;;;3.25;;
8349;SDS011;60699;48.946;8.412;2023-05-17T09:15:10;5.63;;;3.40;;
8349;SDS011;60699;48.946;8.412;2023-05-17T09:17:37;5.70;;;3.15;;
8349;SDS011;60699;48.946;8.412;2023-05-17T09:20:05;3.20;;;2.90;;
8349;SDS011;60699;48.946;8.412;2023-05-17T09:22:32;7.18;;;3.28;;
8349;SDS011;60699;48.946;8.412;2023-05-17T09:25:02;5.40;;;3.58;;
8349;SDS011;60699;48.946;8.412;2023-05-17T09:27:29;4.82;;;3.65;;
8349;SDS011;60699;48.946;8.412;2023-05-17T09:29:56;6.75;;;3.13;;
8349;SDS011;60699;48.946;8.412;2023-05-17T09:32:23;7.07;;;2.90;;
8349;SDS011;60699;48.946;8.412;2023-05-17T09:34:52;4.90;;;3.72;;
8349;SDS011;60699;48.946;8.412;2023-05-17T09:37:21;10.73;;;3.08;;
8349;SDS011;60699;48.946;8.412;2023-05-17T09:39:50;4.15;;;3.45;;
8349;SDS011;60699;48.946;8.412;2023-05-17T09:42:19;3.22;;;2.53;;
8349;SDS011;60699;48.946;8.412;2023-05-17T09:44:51;4.60;;;3.17;;
8349;SDS011;60699;48.946;8.412;2023-05-17T09:47:21;6.68;;;3.20;;
8349;SDS011;60699;48.946;8.412;2023-05-17T09:49:49;5.20;;;3.63;;
8349;SDS011;60699;48.946;8.412;2023-05-17T09:52:16;4.75;;;2.90;;
8349;SDS011;60699;48.946;8.412;2023-05-17T09:54:50;3.70;;;2.85;;
8349;SDS011;60699;48.946;8.412;2023-05-17T09:57:19;6.72;;;3.15;;
8349;SDS011;60699;48.946;8.412;2023-05-17T09:59:47;6.30;;;3.72;;
8349;SDS011;60699;48.946;8.412;2023-05-17T10:02:16;7.55;;;3.63;;
8349;SDS011;60699;48.946;8.412;2023-05-17T10:04:45;5.22;;;3.60;;
8349;SDS011;60699;48.946;8.412;2023-05-17T10:07:13;4.35;;;2.97;;
8349;SDS011;60699;48.946;8.412;2023-05-17T10:09:42;3.70;;;2.50;;
8349;SDS011;60699;48.946;8.412;2023-05-17T10:12:09;5.55;;;3.08;;
8349;SDS011;60699;48.946;8.412;2023-05-17T10:14:41;9.05;;;3.95;;
8349;SDS011;60699;48.946;8.412;2023-05-17T10:17:09;7.75;;;3.90;;
8349;SDS011;60699;48.946;8.412;2023-05-17T10:19:37;6.55;;;3.33;;
8349;SDS011;60699;48.946;8.412;2023-05-17T10:22:04;4.53;;;3.00;;
8349;SDS011;60699;48.946;8.412;2023-05-17T10:24:32;3.50;;;2.95;;
8349;SDS011;60699;48.946;8.412;2023-05-17T10:27:00;4.35;;;2.60;;
8349;SDS011;60699;48.946;8.412;2023-05-17T10:29:27;6.05;;;2.95;;
8349;SDS011;60699;48.946;8.412;2023-05-17T10:31:56;3.47;;;2.53;;
8349;SDS011;60699;48.946;8.412;2023-05-17T10:34:24;5.47;;;3.08;;
8349;SDS011;60699;48.946;8.412;2023-05-17T10:36:51;5.80;;;3.17;;
8349;SDS011;60699;48.946;8.412;2023-05-17T10:39:19;4.70;;;2.50;;
8349;SDS011;60699;48.946;8.412;2023-05-17T10:41:47;5.00;;;2.95;;
8349;SDS011;60699;48.946;8.412;2023-05-17T10:44:16;6.10;;;2.67;;
8349;SDS011;60699;48.946;8.412;2023-05-17T10:46:50;3.10;;;2.72;;
8349;SDS011;60699;48.946;8.412;2023-05-17T10:49:18;4.15;;;2.55;;
8349;SDS011;60699;48.946;8.412;2023-05-17T10:51:46;3.75;;;2.70;;
8349;SDS011;60699;48.946;8.412;2023-05-17T10:54:13;3.15;;;2.65;;
8349;SDS011;60699;48.946;8.412;2023-05-17T10:56:46;4.60;;;2.65;;
8349;SDS011;60699;48.946;8.412;2023-05-17T10:59:16;3.95;;;2.63;;
8349;SDS011;60699;48.946;8.412;2023-05-17T11:01:57;3.55;;;2.90;;
8349;SDS011;60699;48.946;8.412;2023-05-17T11:04:26;4.10;;;2.60;;
8349;SDS011;60699;48.946;8.412;2023-05-17T11:06:54;6.18;;;3.30;;
8349;SDS011;60699;48.946;8.412;2023-05-17T11:09:41;4.65;;;2.72;;
8349;SDS011;60699;48.946;8.412;2023-05-17T11:12:09;5.95;;;3.53;;
8349;SDS011;60699;48.946;8.412;2023-05-17T11:14:47;2.78;;;2.58;;
8349;SDS011;60699;48.946;8.412;2023-05-17T11:17:17;3.40;;;2.50;;
8349;SDS011;60699;48.946;8.412;2023-05-17T11:20:01;3.65;;;2.70;;
8349;SDS011;60699;48.946;8.412;2023-05-17T11:22:33;2.80;;;2.47;;
8349;SDS011;60699;48.946;8.412;2023-05-17T11:25:04;6.28;;;4.85;;
8349;SDS011;60699;48.946;8.412;2023-05-17T11:27:34;3.60;;;2.70;;
8349;SDS011;60699;48.946;8.412;2023-05-17T11:30:06;6.75;;;2.45;;
8349;SDS011;60699;48.946;8.412;2023-05-17T11:32:34;4.30;;;2.95;;
8349;SDS011;60699;48.946;8.412;2023-05-17T11:35:03;5.05;;;3.90;;
8349;SDS011;60699;48.946;8.412;2023-05-17T11:37:30;4.72;;;2.95;;
8349;SDS011;60699;48.946;8.412;2023-05-17T11:40:01;3.40;;;3.08;;
8349;SDS011;60699;48.946;8.412;2023-05-17T11:42:29;4.35;;;3.53;;
8349;SDS011;60699;48.946;8.412;2023-05-17T11:44:56;4.07;;;2.50;;
8349;SDS011;60699;48.946;8.412;2023-05-17T11:47:23;13.00;;;3.53;;
8349;SDS011;60699;48.946;8.412;2023-05-17T11:49:51;4.03;;;2.80;;
8349;SDS011;60699;48.946;8.412;2023-05-17T11:52:21;3.63;;;3.33;;
8349;SDS011;60699;48.946;8.412;2023-05-17T11:54:48;4.68;;;3.10;;
8349;SDS011;60699;48.946;8.412;2023-05-17T11:57:16;3.92;;;2.65;;
8349;SDS011;60699;48.946;8.412;2023-05-17T11:59:45;3.50;;;2.58;;
8349;SDS011;60699;48.946;8.412;2023-05-17T12:02:24;3.83;;;2.70;;
8349;SDS011;60699;48.946;8.412;2023-05-17T12:04:51;5.97;;;3.08;;
8349;SDS011;60699;48.946;8.412;2023-05-17T12:07:18;4.55;;;2.55;;
8349;SDS011;60699;48.946;8.412;2023-05-17T12:09:47;3.20;;;2.45;;
8349;SDS011;60699;48.946;8.412;2023-05-17T12:12:14;5.93;;;2.60;;
8349;SDS011;60699;48.946;8.412;2023-05-17T12:14:42;3.42;;;2.80;;
8349;SDS011;60699;48.946;8.412;2023-05-17T12:17:10;4.32;;;3.33;;
8349;SDS011;60699;48.946;8.412;2023-05-17T12:19:38;5.82;;;2.72;;
8349;SDS011;60699;48.946;8.412;2023-05-17T12:22:06;2.50;;;2.30;;
8349;SDS011;60699;48.946;8.412;2023-05-17T12:24:36;4.35;;;3.00;;
8349;SDS011;60699;48.946;8.412;2023-05-17T12:27:05;2.83;;;2.60;;
8349;SDS011;60699;48.946;8.412;2023-05-17T12:29:32;3.65;;;2.47;;
8349;SDS011;60699;48.946;8.412;2023-05-17T12:31:59;2.05;;;1.95;;
8349;SDS011;60699;48.946;8.412;2023-05-17T12:34:27;2.60;;;2.40;;
8349;SDS011;60699;48.946;8.412;2023-05-17T12:36:54;4.88;;;2.80;;
8349;SDS011;60699;48.946;8.412;2023-05-17T12:39:21;4.93;;;3.38;;
8349;SDS011;60699;48.946;8.412;2023-05-17T12:41:49;4.77;;;3.50;;
8349;SDS011;60699;48.946;8.412;2023-05-17T12:44:18;6.00;;;3.38;;
8349;SDS011;60699;48.946;8.412;2023-05-17T12:46:45;4.07;;;2.88;;
8349;SDS011;60699;48.946;8.412;2023-05-17T12:49:17;3.70;;;3.05;;
8349;SDS011;60699;48.946;8.412;2023-05-17T12:51:46;4.55;;;2.58;;
8349;SDS011;60699;48.946;8.412;2023-05-17T12:54:14;4.40;;;2.50;;
8349;SDS011;60699;48.946;8.412;2023-05-17T12:56:50;3.45;;;2.45;;
8349;SDS011;60699;48.946;8.412;2023-05-17T12:59:19;3.30;;;2.67;;
8349;SDS011;60699;48.946;8.412;2023-05-17T13:01:49;3.20;;;3.00;;
8349;SDS011;60699;48.946;8.412;2023-05-17T13:04:17;3.95;;;2.53;;
8349;SDS011;60699;48.946;8.412;2023-05-17T13:06:44;2.50;;;2.30;;
8349;SDS011;60699;48.946;8.412;2023-05-17T13:09:13;3.67;;;2.83;;
8349;SDS011;60699;48.946;8.412;2023-05-17T13:11:40;4.50;;;2.92;;
8349;SDS011;60699;48.946;8.412;2023-05-17T13:14:09;3.95;;;2.65;;
8349;SDS011;60699;48.946;8.412;2023-05-17T13:16:38;3.20;;;2.90;;
8349;SDS011;60699;48.946;8.412;2023-05-17T13:19:12;2.67;;;2.35;;
8349;SDS011;60699;48.946;8.412;2023-05-17T13:21:39;3.40;;;2.63;;
8349;SDS011;60699;48.946;8.412;2023-05-17T13:24:07;4.28;;;2.97;;
8349;SDS011;60699;48.946;8.412;2023-05-17T13:26:35;6.30;;;3.85;;
8349;SDS011;60699;48.946;8.412;2023-05-17T13:29:02;3.88;;;2.50;;
8349;SDS011;60699;48.946;8.412;2023-05-17T13:31:29;4.57;;;3.38;;
8349;SDS011;60699;48.946;8.412;2023-05-17T13:33:57;3.83;;;2.70;;
8349;SDS011;60699;48.946;8.412;2023-05-17T13:36:24;3.45;;;2.92;;
8349;SDS011;60699;48.946;8.412;2023-05-17T13:38:51;2.55;;;2.10;;
8349;SDS011;60699;48.946;8.412;2023-05-17T13:41:20;4.03;;;3.15;;
8349;SDS011;60699;48.946;8.412;2023-05-17T13:43:47;4.20;;;2.58;;
8349;SDS011;60699;48.946;8.412;2023-05-17T13:46:14;2.90;;;2.63;;
8349;SDS011;60699;48.946;8.412;2023-05-17T13:48:41;3.78;;;2.70;;
8349;SDS011;60699;48.946;8.412;2023-05-17T13:51:10;3.22;;;2.92;;
8349;SDS011;60699;48.946;8.412;2023-05-17T13:53:37;3.85;;;2.97;;
8349;SDS011;60699;48.946;8.412;2023-05-17T13:56:05;4.70;;;3.78;;
8349;SDS011;60699;48.946;8.412;2023-05-17T13:58:32;3.25;;;2.95;;
8349;SDS011;60699;48.946;8.412;2023-05-17T14:00:59;2.60;;;2.40;;
8349;SDS011;60699;48.946;8.412;2023-05-17T14:03:27;5.60;;;3.25;;
8349;SDS011;60699;48.946;8.412;2023-05-17T14:05:54;3.20;;;3.00;;
8349;SDS011;60699;48.946;8.412;2023-05-17T14:08:23;3.63;;;2.53;;
8349;SDS011;60699;48.946;8.412;2023-05-17T14:10:50;4.10;;;2.57;;
8349;SDS011;60699;48.946;8.412;2023-05-17T14:13:17;4.83;;;3.10;;
8349;SDS011;60699;48.946;8.412;2023-05-17T14:15:44;2.80;;;2.57;;
8349;SDS011;60699;48.946;8.412;2023-05-17T14:18:11;5.93;;;3.35;;
8349;SDS011;60699;48.946;8.412;2023-05-17T14:20:38;2.90;;;2.70;;
8349;SDS011;60699;48.946;8.412;2023-05-17T14:23:05;6.13;;;3.65;;
8349;SDS011;60699;48.946;8.412;2023-05-17T14:25:34;4.70;;;2.92;;
8349;SDS011;60699;48.946;8.412;2023-05-17T14:28:01;3.67;;;3.22;;
8349;SDS011;60699;48.946;8.412;2023-05-17T14:30:28;7.20;;;3.70;;
8349;SDS011;60699;48.946;8.412;2023-05-17T14:32:55;9.95;;;3.10;;
8349;SDS011;60699;48.946;8.412;2023-05-17T14:35:22;2.67;;;2.45;;
8349;SDS011;60699;48.946;8.412;2023-05-17T14:37:50;2.88;;;2.65;;
8349;SDS011;60699;48.946;8.412;2023-05-17T14:40:17;3.45;;;2.55;;
8349;SDS011;60699;48.946;8.412;2023-05-17T14:42:45;6.32;;;3.67;;
8349;SDS011;60699;48.946;8.412;2023-05-17T14:45:12;3.58;;;2.95;;
8349;SDS011;60699;48.946;8.412;2023-05-17T14:47:39;6.43;;;3.78;;
8349;SDS011;60699;48.946;8.412;2023-05-17T14:50:06;3.35;;;3.05;;
8349;SDS011;60699;48.946;8.412;2023-05-17T14:52:33;3.50;;;2.70;;
8349;SDS011;60699;48.946;8.412;2023-05-17T14:55:00;4.38;;;2.72;;
8349;SDS011;60699;48.946;8.412;2023-05-17T14:57:28;4.88;;;2.95;;
8349;SDS011;60699;48.946;8.412;2023-05-17T14:59:56;3.60;;;2.83;;
8349;SDS011;60699;48.946;8.412;2023-05-17T15:02:24;5.53;;;2.70;;
8349;SDS011;60699;48.946;8.412;2023-05-17T15:04:51;2.90;;;2.70;;